Tiburon, CA

3:12 PM PDT on August 04, 2015 (GMT -0700)
Tiburon - Gilmartin | | Change Station
CLOSE
Current Station
Personal Weather Station
Location: Belvedere Tiburon, CA
Elevation: 482 ft
Nearby Weather Stations

Elev 482 ft 37.89 °N, 122.47 °W | Updated 7 minutes ago

Mostly Cloudy
Mostly Cloudy
67.4 °F
Feels Like 67.4 °F
N
10.0
Wind Variable Wind from SSW
Gusts 22.0 mph

Today
High -- | Low -- °F
--% Chance of Precip.
Yesterday
High -- | Low -- °F
Precip. -- in
6:15 AM 8:15 PM
Waning Gibbous, 74% visible
Pressure 30.02 in
Visibility 10.0 miles
Clouds Scattered Clouds 4000 ft
Mostly Cloudy 12000 ft
Dew Point 59 °F
Humidity 74%
Rainfall 0.00 in
Snow Depth Not available.
UV 5 out of 12
Pollen 4.90 out of 12
Air Quality Not available.
Flu Activity Not available.
METAR KOAK 042153Z 26011KT 10SM SCT040 BKN120 23/11 A3002 RMK AO2 SLP165 T02280111

More Conditions Fewer Conditions

Pressure 30.02 in
Visibility 10.0 miles
Clouds Scattered Clouds 4000 ft
Mostly Cloudy 12000 ft
Dew Point 59 °F
Humidity 74%
Rainfall 0.00 in
Snow Depth Not available.
UV 5 out of 12
Pollen 4.90 out of 12
Air Quality Not available.
Flu Activity Not available.
METAR KOAK 042153Z 26011KT 10SM SCT040 BKN120 23/11 A3002 RMK AO2 SLP165 T02280111

More Conditions Fewer Conditions

10-Day Weather Forecast

×

Almanac

Astronomy

Aug. 04, 2015 Rise Set
Actual Time
Civil Twilight
Nautical Twilight
Astronomical Twilight
Moon
Length of Visible Light
Length of Day
Tomorrow will be .
, % of the Moon is Illuminated

Today's Extremes

State Highs State Lows

Community

WunderPhotos

Upload Photos

1,844,002 photos uploaded!

WunderBlogs® & News

Nearby

Air Quality

  Air Quality AQ Index Pollutant
Not available.

Snow Depth

Station Depth Elevation

Earthquake Activity

City Distance Mag. Time & Date
Minimum magnitude displayed is 2.5.

Coastal Water Temperatures

Place Temperature

Stations

Nearby Weather Stations

Station Location Temp. Windchill Dew Point Humidity Wind Precip. Elev Updated Type